sensor_id;sensor_type;location;lat;lon;timestamp;pressure;altitude;pressure_sealevel;temperature;humidity
58245;BME280;44550;43.864;25.986;2023-04-21T00:00:48;100600.63;;;11.00;100.00
58245;BME280;44550;43.864;25.986;2023-04-21T00:04:49;100591.03;;;10.98;100.00
58245;BME280;44550;43.864;25.986;2023-04-21T00:08:55;100592.81;;;11.10;100.00
58245;BME280;44550;43.864;25.986;2023-04-21T00:12:58;100588.41;;;11.05;100.00
58245;BME280;44550;43.864;25.986;2023-04-21T00:17:02;100590.19;;;11.14;100.00
58245;BME280;44550;43.864;25.986;2023-04-21T00:26:16;100575.38;;;11.13;100.00
58245;BME280;44550;43.864;25.986;2023-04-21T00:40:29;100561.41;;;11.03;100.00
58245;BME280;44550;43.864;25.986;2023-04-21T00:45:18;100556.19;;;11.17;100.00
58245;BME280;44550;43.864;25.986;2023-04-21T00:49:40;100555.31;;;11.35;100.00
58245;BME280;44550;43.864;25.986;2023-04-21T00:53:59;100553.56;;;11.31;100.00
58245;BME280;44550;43.864;25.986;2023-04-21T00:58:13;100562.31;;;11.53;100.00
58245;BME280;44550;43.864;25.986;2023-04-21T01:02:19;100559.69;;;11.99;100.00
58245;BME280;44550;43.864;25.986;2023-04-21T01:06:22;100560.56;;;12.06;100.00
58245;BME280;44550;43.864;25.986;2023-04-21T01:10:29;100570.16;;;12.01;100.00
58245;BME280;44550;43.864;25.986;2023-04-21T01:14:36;100578.88;;;12.22;100.00
58245;BME280;44550;43.864;25.986;2023-04-21T01:18:42;100592.84;;;12.23;100.00
58245;BME280;44550;43.864;25.986;2023-04-21T01:22:51;100592.84;;;12.14;100.00
58245;BME280;44550;43.864;25.986;2023-04-21T01:26:53;100591.16;;;11.90;100.00
58245;BME280;44550;43.864;25.986;2023-04-21T01:30:56;100591.13;;;11.70;100.00
58245;BME280;44550;43.864;25.986;2023-04-21T01:35:02;100594.63;;;11.57;100.00
58245;BME280;44550;43.864;25.986;2023-04-21T01:39:19;100595.47;;;11.26;100.00
58245;BME280;44550;43.864;25.986;2023-04-21T01:43:28;100590.22;;;11.31;100.00
58245;BME280;44550;43.864;25.986;2023-04-21T01:47:32;100586.75;;;11.41;100.00
58245;BME280;44550;43.864;25.986;2023-04-21T01:51:39;100593.72;;;11.48;100.00
58245;BME280;44550;43.864;25.986;2023-04-21T01:55:43;100594.59;;;11.47;100.00
58245;BME280;44550;43.864;25.986;2023-04-21T01:59:51;100592.88;;;11.57;100.00
58245;BME280;44550;43.864;25.986;2023-04-21T02:04:02;100575.41;;;11.30;100.00
58245;BME280;44550;43.864;25.986;2023-04-21T02:08:07;100570.16;;;11.16;100.00
58245;BME280;44550;43.864;25.986;2023-04-21T02:12:11;100544.84;;;11.03;100.00
58245;BME280;44550;43.864;25.986;2023-04-21T02:16:17;100536.97;;;11.04;100.00
58245;BME280;44550;43.864;25.986;2023-04-21T02:20:18;100529.94;;;10.70;100.00
58245;BME280;44550;43.864;25.986;2023-04-21T02:24:22;100529.94;;;10.74;100.00
58245;BME280;44550;43.864;25.986;2023-04-21T02:28:26;100532.59;;;10.94;100.00
58245;BME280;44550;43.864;25.986;2023-04-21T02:32:36;100526.50;;;10.98;100.00
58245;BME280;44550;43.864;25.986;2023-04-21T02:36:40;100523.88;;;10.97;100.00
58245;BME280;44550;43.864;25.986;2023-04-21T02:41:00;100517.81;;;11.10;100.00
58245;BME280;44550;43.864;25.986;2023-04-21T02:45:16;100516.00;;;10.81;100.00
58245;BME280;44550;43.864;25.986;2023-04-21T02:49:19;100515.16;;;11.01;100.00
58245;BME280;44550;43.864;25.986;2023-04-21T02:53:26;100522.16;;;11.00;100.00
58245;BME280;44550;43.864;25.986;2023-04-21T02:57:29;100524.75;;;10.99;100.00
58245;BME280;44550;43.864;25.986;2023-04-21T03:01:32;100530.88;;;10.99;100.00
58245;BME280;44550;43.864;25.986;2023-04-21T03:05:35;100534.34;;;10.98;100.00
58245;BME280;44550;43.864;25.986;2023-04-21T03:09:40;100534.34;;;11.15;100.00
58245;BME280;44550;43.864;25.986;2023-04-21T03:14:05;100531.75;;;11.17;100.00
58245;BME280;44550;43.864;25.986;2023-04-21T03:18:28;100537.88;;;11.33;100.00
58245;BME280;44550;43.864;25.986;2023-04-21T03:22:32;100537.88;;;11.75;100.00
58245;BME280;44550;43.864;25.986;2023-04-21T03:26:33;100531.75;;;11.93;100.00
58245;BME280;44550;43.864;25.986;2023-04-21T03:30:36;100530.81;;;12.14;100.00
58245;BME280;44550;43.864;25.986;2023-04-21T03:34:43;100537.88;;;11.85;100.00
58245;BME280;44550;43.864;25.986;2023-04-21T03:38:59;100547.50;;;11.86;100.00
58245;BME280;44550;43.864;25.986;2023-04-21T03:43:32;100557.06;;;11.81;100.00
58245;BME280;44550;43.864;25.986;2023-04-21T03:47:56;100558.81;;;11.80;100.00
58245;BME280;44550;43.864;25.986;2023-04-21T03:52:04;100565.78;;;11.78;100.00
58245;BME280;44550;43.864;25.986;2023-04-21T03:56:05;100571.00;;;12.15;100.00
58245;BME280;44550;43.864;25.986;2023-04-21T04:00:09;100567.50;;;12.23;100.00
58245;BME280;44550;43.864;25.986;2023-04-21T04:04:11;100567.47;;;12.31;100.00
58245;BME280;44550;43.864;25.986;2023-04-21T04:08:22;100570.00;;;12.54;100.00
58245;BME280;44550;43.864;25.986;2023-04-21T04:12:29;100582.97;;;12.88;100.00
58245;BME280;44550;43.864;25.986;2023-04-21T04:16:41;100595.19;;;12.90;100.00
58245;BME280;44550;43.864;25.986;2023-04-21T04:20:47;100597.91;;;12.77;100.00
58245;BME280;44550;43.864;25.986;2023-04-21T04:24:54;100607.50;;;12.82;100.00
58245;BME280;44550;43.864;25.986;2023-04-21T04:28:57;100616.31;;;12.63;100.00
58245;BME280;44550;43.864;25.986;2023-04-21T04:33:07;100615.38;;;12.75;100.00
58245;BME280;44550;43.864;25.986;2023-04-21T04:37:09;100622.38;;;12.80;100.00
58245;BME280;44550;43.864;25.986;2023-04-21T04:41:14;100622.38;;;12.80;100.00
58245;BME280;44550;43.864;25.986;2023-04-21T04:45:33;100624.09;;;12.81;100.00
58245;BME280;44550;43.864;25.986;2023-04-21T04:49:41;100629.34;;;12.84;100.00
58245;BME280;44550;43.864;25.986;2023-04-21T04:53:42;100633.66;;;12.98;100.00
58245;BME280;44550;43.864;25.986;2023-04-21T04:57:58;100635.41;;;13.00;100.00
58245;BME280;44550;43.864;25.986;2023-04-21T05:02:11;100652.06;;;12.87;100.00
58245;BME280;44550;43.864;25.986;2023-04-21T05:06:20;100661.78;;;12.60;100.00
58245;BME280;44550;43.864;25.986;2023-04-21T05:10:22;100660.84;;;12.86;100.00
58245;BME280;44550;43.864;25.986;2023-04-21T05:14:31;100662.50;;;13.07;100.00
58245;BME280;44550;43.864;25.986;2023-04-21T05:18:32;100654.47;;;13.40;100.00
58245;BME280;44550;43.864;25.986;2023-04-21T05:22:43;100654.19;;;13.82;100.00
58245;BME280;44550;43.864;25.986;2023-04-21T05:26:47;100657.56;;;13.96;100.00
58245;BME280;44550;43.864;25.986;2023-04-21T05:30:51;100666.97;;;14.20;100.00
58245;BME280;44550;43.864;25.986;2023-04-21T05:34:57;100666.69;;;13.46;100.00
58245;BME280;44550;43.864;25.986;2023-04-21T05:38:59;100666.53;;;13.69;100.00
58245;BME280;44550;43.864;25.986;2023-04-21T05:43:04;100673.28;;;14.02;100.00
58245;BME280;44550;43.864;25.986;2023-04-21T05:47:10;100681.03;;;14.21;100.00
58245;BME280;44550;43.864;25.986;2023-04-21T05:51:26;100690.59;;;14.28;100.00
58245;BME280;44550;43.864;25.986;2023-04-21T05:55:32;100683.41;;;14.45;100.00
58245;BME280;44550;43.864;25.986;2023-04-21T05:59:36;100689.72;;;14.29;100.00
58245;BME280;44550;43.864;25.986;2023-04-21T06:03:39;100704.13;;;13.82;100.00
58245;BME280;44550;43.864;25.986;2023-04-21T06:07:43;100698.94;;;13.74;100.00
58245;BME280;44550;43.864;25.986;2023-04-21T06:11:47;100699.81;;;13.72;100.00
58245;BME280;44550;43.864;25.986;2023-04-21T06:16:04;100713.78;;;13.78;100.00
58245;BME280;44550;43.864;25.986;2023-04-21T06:20:12;100707.63;;;13.79;100.00
58245;BME280;44550;43.864;25.986;2023-04-21T06:24:20;100720.00;;;13.60;100.00
58245;BME280;44550;43.864;25.986;2023-04-21T06:28:30;100710.56;;;13.29;100.00
58245;BME280;44550;43.864;25.986;2023-04-21T06:32:33;100715.88;;;13.01;100.00
58245;BME280;44550;43.864;25.986;2023-04-21T06:36:37;100711.59;;;12.77;100.00
58245;BME280;44550;43.864;25.986;2023-04-21T06:40:43;100709.78;;;13.02;100.00
58245;BME280;44550;43.864;25.986;2023-04-21T06:44:43;100705.94;;;13.69;100.00
58245;BME280;44550;43.864;25.986;2023-04-21T06:48:47;100709.31;;;13.90;100.00
58245;BME280;44550;43.864;25.986;2023-04-21T06:52:50;100708.25;;;14.14;100.00
58245;BME280;44550;43.864;25.986;2023-04-21T06:56:58;100716.31;;;13.89;100.00
58245;BME280;44550;43.864;25.986;2023-04-21T07:01:02;100710.00;;;14.13;100.00
58245;BME280;44550;43.864;25.986;2023-04-21T07:05:07;100715.03;;;14.39;100.00
58245;BME280;44550;43.864;25.986;2023-04-21T07:09:14;100715.28;;;15.04;100.00
58245;BME280;44550;43.864;25.986;2023-04-21T07:13:22;100707.66;;;15.50;100.00
58245;BME280;44550;43.864;25.986;2023-04-21T07:18:37;100706.09;;;15.97;93.36
58245;BME280;44550;43.864;25.986;2023-04-21T07:22:19;100708.75;;;15.33;97.36
58245;BME280;44550;43.864;25.986;2023-04-21T07:26:22;100706.91;;;15.39;96.51
58245;BME280;44550;43.864;25.986;2023-04-21T07:30:23;100711.53;;;15.85;94.64
58245;BME280;44550;43.864;25.986;2023-04-21T07:34:43;100718.41;;;15.34;92.32
58245;BME280;44550;43.864;25.986;2023-04-21T07:39:18;100716.22;;;14.98;90.47
58245;BME280;44550;43.864;25.986;2023-04-21T07:43:25;100726.59;;;15.11;89.22
58245;BME280;44550;43.864;25.986;2023-04-21T07:47:28;100729.41;;;15.65;87.38
58245;BME280;44550;43.864;25.986;2023-04-21T07:51:31;100720.31;;;15.87;83.28
58245;BME280;44550;43.864;25.986;2023-04-21T07:55:34;100730.38;;;16.19;80.38
58245;BME280;44550;43.864;25.986;2023-04-21T07:59:51;100726.16;;;16.59;80.55
58245;BME280;44550;43.864;25.986;2023-04-21T08:08:33;100728.44;;;17.25;71.12
58245;BME280;44550;43.864;25.986;2023-04-21T08:12:41;100723.28;;;17.18;69.04
58245;BME280;44550;43.864;25.986;2023-04-21T08:16:51;100727.00;;;17.07;75.10
58245;BME280;44550;43.864;25.986;2023-04-21T08:21:01;100733.03;;;17.56;64.50
58245;BME280;44550;43.864;25.986;2023-04-21T08:25:22;100731.69;;;17.36;65.92
58245;BME280;44550;43.864;25.986;2023-04-21T08:29:44;100736.28;;;17.69;58.45
58245;BME280;44550;43.864;25.986;2023-04-21T08:34:08;100717.13;;;17.57;56.76
58245;BME280;44550;43.864;25.986;2023-04-21T08:38:10;100726.09;;;17.92;58.75
58245;BME280;44550;43.864;25.986;2023-04-21T08:42:36;100722.53;;;17.93;53.70
58245;BME280;44550;43.864;25.986;2023-04-21T08:46:51;100720.00;;;17.87;53.63
58245;BME280;44550;43.864;25.986;2023-04-21T08:51:21;100720.31;;;18.12;54.91
58245;BME280;44550;43.864;25.986;2023-04-21T08:55:30;100722.88;;;17.78;52.97
58245;BME280;44550;43.864;25.986;2023-04-21T08:59:50;100715.53;;;17.52;54.59
58245;BME280;44550;43.864;25.986;2023-04-21T09:08:53;100722.53;;;17.93;52.56
58245;BME280;44550;43.864;25.986;2023-04-21T09:13:15;100729.31;;;18.05;53.47
58245;BME280;44550;43.864;25.986;2023-04-21T09:17:39;100724.00;;;18.05;49.69
58245;BME280;44550;43.864;25.986;2023-04-21T09:22:15;100724.28;;;18.63;50.90
58245;BME280;44550;43.864;25.986;2023-04-21T09:26:48;100720.31;;;18.11;49.68
58245;BME280;44550;43.864;25.986;2023-04-21T09:31:27;100725.41;;;18.20;51.42
58245;BME280;44550;43.864;25.986;2023-04-21T09:36:03;100729.19;;;18.10;45.67
58245;BME280;44550;43.864;25.986;2023-04-21T09:40:07;100724.69;;;18.47;48.79
58245;BME280;44550;43.864;25.986;2023-04-21T09:44:40;100724.75;;;18.46;43.29
58245;BME280;44550;43.864;25.986;2023-04-21T09:49:27;100726.41;;;18.14;45.87
58245;BME280;44550;43.864;25.986;2023-04-21T09:53:55;100723.88;;;18.10;45.11
58245;BME280;44550;43.864;25.986;2023-04-21T09:58:40;100723.09;;;18.42;44.37
58245;BME280;44550;43.864;25.986;2023-04-21T10:03:08;100722.03;;;18.47;44.29
58245;BME280;44550;43.864;25.986;2023-04-21T10:12:23;100728.41;;;18.40;46.29
58245;BME280;44550;43.864;25.986;2023-04-21T10:16:56;100725.69;;;18.07;45.96
58245;BME280;44550;43.864;25.986;2023-04-21T10:21:31;100719.03;;;18.28;47.00
58245;BME280;44550;43.864;25.986;2023-04-21T10:26:08;100724.25;;;18.31;45.90
58245;BME280;44550;43.864;25.986;2023-04-21T10:31:10;100731.03;;;18.42;48.66
58245;BME280;44550;43.864;25.986;2023-04-21T10:35:22;100735.78;;;18.96;45.70
58245;BME280;44550;43.864;25.986;2023-04-21T10:39:41;100734.53;;;18.78;44.96
58245;BME280;44550;43.864;25.986;2023-04-21T10:44:15;100738.97;;;18.42;45.68
58245;BME280;44550;43.864;25.986;2023-04-21T10:48:40;100728.59;;;17.98;46.14
58245;BME280;44550;43.864;25.986;2023-04-21T10:52:44;100742.03;;;17.89;46.19
58245;BME280;44550;43.864;25.986;2023-04-21T10:57:16;100734.63;;;18.03;46.23
58245;BME280;44550;43.864;25.986;2023-04-21T11:01:28;100736.25;;;18.09;45.46
58245;BME280;44550;43.864;25.986;2023-04-21T11:05:56;100738.47;;;18.60;44.84
58245;BME280;44550;43.864;25.986;2023-04-21T11:10:09;100736.69;;;18.61;44.07
58245;BME280;44550;43.864;25.986;2023-04-21T11:14:24;100733.00;;;19.00;44.75
58245;BME280;44550;43.864;25.986;2023-04-21T11:18:45;100734.25;;;18.87;44.26
58245;BME280;44550;43.864;25.986;2023-04-21T11:22:53;100726.84;;;19.31;41.75
58245;BME280;44550;43.864;25.986;2023-04-21T11:27:26;100735.31;;;19.42;41.37
58245;BME280;44550;43.864;25.986;2023-04-21T11:31:49;100724.34;;;19.25;39.30
58245;BME280;44550;43.864;25.986;2023-04-21T11:36:20;100730.09;;;19.41;40.97
58245;BME280;44550;43.864;25.986;2023-04-21T11:40:30;100722.56;;;19.25;39.53
58245;BME280;44550;43.864;25.986;2023-04-21T11:44:46;100721.28;;;19.39;39.71
58245;BME280;44550;43.864;25.986;2023-04-21T11:49:02;100717.13;;;19.30;40.68
58245;BME280;44550;43.864;25.986;2023-04-21T11:53:19;100716.94;;;19.36;38.33
58245;BME280;44550;43.864;25.986;2023-04-21T11:58:28;100709.16;;;19.30;40.57
58245;BME280;44550;43.864;25.986;2023-04-21T12:02:59;100718.72;;;19.06;41.24
58245;BME280;44550;43.864;25.986;2023-04-21T12:07:21;100716.22;;;19.01;40.29
58245;BME280;44550;43.864;25.986;2023-04-21T12:11:39;100715.03;;;19.12;41.33
58245;BME280;44550;43.864;25.986;2023-04-21T12:16:08;100722.31;;;19.04;39.60
58245;BME280;44550;43.864;25.986;2023-04-21T12:20:27;100718.34;;;18.87;40.17
58245;BME280;44550;43.864;25.986;2023-04-21T12:24:48;100720.78;;;18.62;41.48
58245;BME280;44550;43.864;25.986;2023-04-21T12:28:54;100713.56;;;18.67;43.04
58245;BME280;44550;43.864;25.986;2023-04-21T12:33:00;100712.25;;;18.85;42.65
58245;BME280;44550;43.864;25.986;2023-04-21T12:37:17;100698.94;;;19.18;41.22
58245;BME280;44550;43.864;25.986;2023-04-21T12:41:24;100695.34;;;19.20;40.75
58245;BME280;44550;43.864;25.986;2023-04-21T12:45:29;100701.19;;;19.00;41.57
58245;BME280;44550;43.864;25.986;2023-04-21T12:49:36;100696.13;;;19.24;41.56
58245;BME280;44550;43.864;25.986;2023-04-21T12:53:56;100687.16;;;19.56;41.09
58245;BME280;44550;43.864;25.986;2023-04-21T12:58:15;100683.22;;;19.71;40.89
58245;BME280;44550;43.864;25.986;2023-04-21T13:02:17;100673.38;;;19.75;42.27
58245;BME280;44550;43.864;25.986;2023-04-21T13:06:24;100676.13;;;19.71;42.45
58245;BME280;44550;43.864;25.986;2023-04-21T13:10:27;100676.63;;;19.55;43.18
58245;BME280;44550;43.864;25.986;2023-04-21T13:14:46;100675.19;;;19.73;42.46
58245;BME280;44550;43.864;25.986;2023-04-21T13:18:52;100672.63;;;19.40;43.21
58245;BME280;44550;43.864;25.986;2023-04-21T13:22:52;100681.03;;;19.26;42.32
58245;BME280;44550;43.864;25.986;2023-04-21T13:26:56;100673.56;;;19.39;43.17
58245;BME280;44550;43.864;25.986;2023-04-21T13:31:00;100675.19;;;19.43;42.47
58245;BME280;44550;43.864;25.986;2023-04-21T13:35:11;100668.00;;;19.46;42.15
58245;BME280;44550;43.864;25.986;2023-04-21T13:39:22;100671.38;;;19.23;43.42
58245;BME280;44550;43.864;25.986;2023-04-21T13:43:24;100677.63;;;19.51;42.41
58245;BME280;44550;43.864;25.986;2023-04-21T13:47:26;100675.78;;;19.53;40.71
58245;BME280;44550;43.864;25.986;2023-04-21T13:51:29;100669.97;;;19.41;40.54
58245;BME280;44550;43.864;25.986;2023-04-21T13:55:34;100662.34;;;19.59;40.03
58245;BME280;44550;43.864;25.986;2023-04-21T13:59:37;100667.25;;;19.43;40.23
58245;BME280;44550;43.864;25.986;2023-04-21T14:03:40;100671.34;;;18.94;40.55
58245;BME280;44550;43.864;25.986;2023-04-21T14:07:53;100670.97;;;19.08;40.69
58245;BME280;44550;43.864;25.986;2023-04-21T14:11:57;100665.34;;;19.48;39.64
58245;BME280;44550;43.864;25.986;2023-04-21T14:16:00;100671.09;;;19.03;42.87
58245;BME280;44550;43.864;25.986;2023-04-21T14:20:10;100660.50;;;19.33;42.39
58245;BME280;44550;43.864;25.986;2023-04-21T14:24:20;100667.91;;;19.51;41.47
58245;BME280;44550;43.864;25.986;2023-04-21T14:28:26;100661.81;;;19.76;41.58
58245;BME280;44550;43.864;25.986;2023-04-21T14:32:33;100662.38;;;20.13;40.64
58245;BME280;44550;43.864;25.986;2023-04-21T14:36:37;100661.03;;;20.27;39.42
58245;BME280;44550;43.864;25.986;2023-04-21T14:40:40;100665.31;;;20.04;38.29
58245;BME280;44550;43.864;25.986;2023-04-21T14:44:46;100651.81;;;20.37;39.29
58245;BME280;44550;43.864;25.986;2023-04-21T14:48:47;100658.25;;;20.30;39.38
58245;BME280;44550;43.864;25.986;2023-04-21T14:57:14;100660.38;;;19.65;39.72
58245;BME280;44550;43.864;25.986;2023-04-21T15:01:20;100661.13;;;19.97;39.30
58245;BME280;44550;43.864;25.986;2023-04-21T15:05:23;100660.19;;;20.25;38.98
58245;BME280;44550;43.864;25.986;2023-04-21T15:09:31;100659.88;;;20.34;38.78
58245;BME280;44550;43.864;25.986;2023-04-21T15:13:40;100660.88;;;20.05;38.99
58245;BME280;44550;43.864;25.986;2023-04-21T15:17:42;100648.53;;;20.04;38.79
58245;BME280;44550;43.864;25.986;2023-04-21T15:21:43;100646.91;;;20.25;38.48
58245;BME280;44550;43.864;25.986;2023-04-21T15:26:01;100647.78;;;20.25;39.12
58245;BME280;44550;43.864;25.986;2023-04-21T15:30:12;100651.13;;;20.57;38.04
58245;BME280;44550;43.864;25.986;2023-04-21T15:34:13;100650.53;;;20.22;38.08
58245;BME280;44550;43.864;25.986;2023-04-21T15:38:14;100641.91;;;20.67;37.63
58245;BME280;44550;43.864;25.986;2023-04-21T15:42:16;100644.66;;;20.64;37.31
58245;BME280;44550;43.864;25.986;2023-04-21T15:46:20;100640.97;;;20.68;37.46
58245;BME280;44550;43.864;25.986;2023-04-21T15:50:23;100634.69;;;20.94;37.20
58245;BME280;44550;43.864;25.986;2023-04-21T15:54:29;100629.66;;;21.10;36.60
58245;BME280;44550;43.864;25.986;2023-04-21T15:58:39;100631.69;;;20.80;37.09
58245;BME280;44550;43.864;25.986;2023-04-21T16:02:47;100637.75;;;20.60;38.45
58245;BME280;44550;43.864;25.986;2023-04-21T16:06:59;100635.31;;;20.77;37.88
58245;BME280;44550;43.864;25.986;2023-04-21T16:11:00;100630.22;;;20.71;38.05
58245;BME280;44550;43.864;25.986;2023-04-21T16:15:16;100635.56;;;20.95;38.56
58245;BME280;44550;43.864;25.986;2023-04-21T16:19:27;100634.72;;;20.44;38.06
58245;BME280;44550;43.864;25.986;2023-04-21T16:23:33;100623.56;;;20.59;38.60
58245;BME280;44550;43.864;25.986;2023-04-21T16:27:41;100632.25;;;20.64;38.50
58245;BME280;44550;43.864;25.986;2023-04-21T16:31:54;100634.13;;;20.36;38.69
58245;BME280;44550;43.864;25.986;2023-04-21T16:36:00;100626.16;;;20.36;39.63
58245;BME280;44550;43.864;25.986;2023-04-21T16:40:19;100627.69;;;20.43;39.61
58245;BME280;44550;43.864;25.986;2023-04-21T16:44:28;100632.66;;;20.27;39.95
58245;BME280;44550;43.864;25.986;2023-04-21T16:48:35;100635.59;;;20.45;40.59
58245;BME280;44550;43.864;25.986;2023-04-21T16:52:42;100627.16;;;20.58;40.51
58245;BME280;44550;43.864;25.986;2023-04-21T16:56:52;100645.53;;;20.64;40.04
58245;BME280;44550;43.864;25.986;2023-04-21T17:00:55;100639.47;;;20.61;40.52
58245;BME280;44550;43.864;25.986;2023-04-21T17:05:01;100654.63;;;20.06;45.45
58245;BME280;44550;43.864;25.986;2023-04-21T17:09:08;100651.84;;;19.84;49.84
58245;BME280;44550;43.864;25.986;2023-04-21T17:13:08;100649.41;;;19.48;52.21
58245;BME280;44550;43.864;25.986;2023-04-21T17:17:11;100652.09;;;19.46;53.91
58245;BME280;44550;43.864;25.986;2023-04-21T17:21:27;100665.88;;;19.00;56.61
58245;BME280;44550;43.864;25.986;2023-04-21T17:25:31;100664.31;;;18.60;58.84
58245;BME280;44550;43.864;25.986;2023-04-21T17:29:35;100663.44;;;18.61;59.45
58245;BME280;44550;43.864;25.986;2023-04-21T17:33:45;100659.00;;;18.62;59.87
58245;BME280;44550;43.864;25.986;2023-04-21T17:37:49;100671.09;;;18.70;59.36
58245;BME280;44550;43.864;25.986;2023-04-21T17:41:56;100671.72;;;18.49;59.92
58245;BME280;44550;43.864;25.986;2023-04-21T17:46:08;100676.69;;;18.61;59.82
58245;BME280;44550;43.864;25.986;2023-04-21T17:50:11;100681.53;;;18.78;59.71
58245;BME280;44550;43.864;25.986;2023-04-21T17:54:16;100684.72;;;18.58;59.61
58245;BME280;44550;43.864;25.986;2023-04-21T17:58:23;100687.91;;;18.37;60.93
58245;BME280;44550;43.864;25.986;2023-04-21T18:02:31;100685.09;;;18.44;60.85
58245;BME280;44550;43.864;25.986;2023-04-21T18:06:46;100688.44;;;18.51;60.25
58245;BME280;44550;43.864;25.986;2023-04-21T18:11:10;100685.97;;;18.43;60.90
58245;BME280;44550;43.864;25.986;2023-04-21T18:15:16;100689.75;;;18.35;60.82
58245;BME280;44550;43.864;25.986;2023-04-21T18:19:17;100689.56;;;18.06;61.89
58245;BME280;44550;43.864;25.986;2023-04-21T18:23:17;100691.78;;;17.88;62.57
58245;BME280;44550;43.864;25.986;2023-04-21T18:27:23;100691.03;;;17.82;63.55
58245;BME280;44550;43.864;25.986;2023-04-21T18:31:32;100694.34;;;17.92;63.10
58245;BME280;44550;43.864;25.986;2023-04-21T18:35:39;100696.72;;;18.03;62.92
58245;BME280;44550;43.864;25.986;2023-04-21T18:39:57;100704.22;;;18.21;62.09
58245;BME280;44550;43.864;25.986;2023-04-21T18:44:36;100708.09;;;18.06;61.58
58245;BME280;44550;43.864;25.986;2023-04-21T18:48:45;100712.22;;;18.18;62.51
58245;BME280;44550;43.864;25.986;2023-04-21T18:53:42;100725.97;;;18.33;63.04
58245;BME280;44550;43.864;25.986;2023-04-21T18:58:04;100713.00;;;18.22;62.54
58245;BME280;44550;43.864;25.986;2023-04-21T19:02:26;100715.50;;;17.92;64.11
58245;BME280;44550;43.864;25.986;2023-04-21T19:06:36;100712.63;;;18.01;64.21
58245;BME280;44550;43.864;25.986;2023-04-21T19:10:58;100717.56;;;17.79;65.24
58245;BME280;44550;43.864;25.986;2023-04-21T19:15:12;100713.28;;;17.72;65.93
58245;BME280;44550;43.864;25.986;2023-04-21T19:19:29;100716.19;;;17.60;66.54
58245;BME280;44550;43.864;25.986;2023-04-21T19:23:49;100717.19;;;17.54;67.05
58245;BME280;44550;43.864;25.986;2023-04-21T19:27:59;100723.28;;;17.58;66.82
58245;BME280;44550;43.864;25.986;2023-04-21T19:32:20;100718.59;;;17.71;66.70
58245;BME280;44550;43.864;25.986;2023-04-21T19:36:34;100723.81;;;17.74;65.99
58245;BME280;44550;43.864;25.986;2023-04-21T19:45:41;100729.81;;;17.42;67.08
58245;BME280;44550;43.864;25.986;2023-04-21T19:50:20;100733.31;;;17.44;66.67
58245;BME280;44550;43.864;25.986;2023-04-21T19:54:57;100738.88;;;17.30;66.90
58245;BME280;44550;43.864;25.986;2023-04-21T19:59:21;100742.63;;;17.18;67.60
58245;BME280;44550;43.864;25.986;2023-04-21T20:03:59;100741.38;;;17.37;66.70
58245;BME280;44550;43.864;25.986;2023-04-21T20:08:32;100732.69;;;17.32;65.34
58245;BME280;44550;43.864;25.986;2023-04-21T20:13:01;100728.56;;;17.18;66.08
58245;BME280;44550;43.864;25.986;2023-04-21T20:17:42;100735.34;;;16.87;67.29
58245;BME280;44550;43.864;25.986;2023-04-21T20:22:22;100733.38;;;16.49;69.87
58245;BME280;44550;43.864;25.986;2023-04-21T20:26:39;100738.22;;;16.23;72.12
58245;BME280;44550;43.864;25.986;2023-04-21T20:31:06;100737.25;;;16.28;72.42
58245;BME280;44550;43.864;25.986;2023-04-21T20:40:14;100741.78;;;16.20;74.21
58245;BME280;44550;43.864;25.986;2023-04-21T20:44:38;100743.69;;;16.10;74.84
58245;BME280;44550;43.864;25.986;2023-04-21T20:48:53;100739.50;;;15.95;75.80
58245;BME280;44550;43.864;25.986;2023-04-21T20:53:34;100736.09;;;15.89;76.42
58245;BME280;44550;43.864;25.986;2023-04-21T20:58:01;100737.00;;;15.88;76.70
58245;BME280;44550;43.864;25.986;2023-04-21T21:02:23;100733.63;;;15.80;76.61
58245;BME280;44550;43.864;25.986;2023-04-21T21:06:30;100746.09;;;15.67;76.81
58245;BME280;44550;43.864;25.986;2023-04-21T21:10:49;100744.53;;;15.50;77.22
58245;BME280;44550;43.864;25.986;2023-04-21T21:15:04;100746.31;;;15.50;77.08
58245;BME280;44550;43.864;25.986;2023-04-21T21:19:40;100762.81;;;15.64;75.92
58245;BME280;44550;43.864;25.986;2023-04-21T21:24:10;100758.09;;;15.89;74.90
58245;BME280;44550;43.864;25.986;2023-04-21T21:28:39;100762.16;;;16.10;73.46
58245;BME280;44550;43.864;25.986;2023-04-21T21:32:53;100760.03;;;16.34;71.31
58245;BME280;44550;43.864;25.986;2023-04-21T21:37:40;100761.50;;;16.50;70.58
58245;BME280;44550;43.864;25.986;2023-04-21T21:41:57;100763.03;;;16.62;69.95
58245;BME280;44550;43.864;25.986;2023-04-21T21:46:24;100765.47;;;16.74;69.69
58245;BME280;44550;43.864;25.986;2023-04-21T21:50:38;100760.59;;;17.01;68.27
58245;BME280;44550;43.864;25.986;2023-04-21T21:55:08;100763.66;;;17.24;67.99
58245;BME280;44550;43.864;25.986;2023-04-21T21:59:39;100764.22;;;16.95;72.27
58245;BME280;44550;43.864;25.986;2023-04-21T22:04:01;100777.72;;;16.26;77.16
58245;BME280;44550;43.864;25.986;2023-04-21T22:08:08;100789.66;;;15.94;79.47
58245;BME280;44550;43.864;25.986;2023-04-21T22:12:11;100810.59;;;15.35;82.39
58245;BME280;44550;43.864;25.986;2023-04-21T22:16:31;100812.06;;;14.80;86.42
58245;BME280;44550;43.864;25.986;2023-04-21T22:20:43;100815.84;;;14.47;89.24